createdAt,value
2024-02-16T00:02:26.838Z,3.70
2024-02-16T00:04:57.876Z,3.50
2024-02-16T00:07:27.862Z,4.20
2024-02-16T00:09:55.996Z,3.97
2024-02-16T00:12:27.945Z,3.97
2024-02-16T00:15:10.123Z,3.70
2024-02-16T00:17:38.845Z,4.10
2024-02-16T00:20:13.830Z,3.57
2024-02-16T00:22:46.051Z,3.30
2024-02-16T00:25:19.295Z,3.93
2024-02-16T00:27:51.407Z,3.50
2024-02-16T00:30:19.985Z,3.93
2024-02-16T00:32:48.939Z,4.20
2024-02-16T00:35:19.131Z,3.63
2024-02-16T00:37:47.907Z,3.40
2024-02-16T00:40:16.273Z,3.57
2024-02-16T00:42:47.391Z,4.10
2024-02-16T00:45:19.703Z,3.60
2024-02-16T00:47:50.078Z,3.43
2024-02-16T00:50:24.929Z,3.90
2024-02-16T00:52:52.916Z,3.37
2024-02-16T00:55:21.183Z,3.60
2024-02-16T00:57:50.373Z,4.00
2024-02-16T01:00:27.012Z,3.70
2024-02-16T01:02:56.343Z,3.00
2024-02-16T01:05:34.435Z,3.10
2024-02-16T01:08:03.074Z,3.47
2024-02-16T01:10:31.952Z,3.13
2024-02-16T01:12:59.836Z,3.13
2024-02-16T01:15:42.537Z,3.60
2024-02-16T01:18:11.027Z,3.20
2024-02-16T01:20:42.096Z,3.30
2024-02-16T01:23:10.410Z,3.00
2024-02-16T01:25:38.849Z,3.97
2024-02-16T01:28:08.887Z,3.37
2024-02-16T01:30:38.138Z,3.43
2024-02-16T01:33:07.579Z,3.17
2024-02-16T01:35:37.548Z,3.10
2024-02-16T01:38:12.337Z,3.30
2024-02-16T01:40:43.470Z,3.57
2024-02-16T01:43:11.450Z,3.40
2024-02-16T01:45:41.025Z,3.60
2024-02-16T01:48:10.363Z,3.50
2024-02-16T01:50:40.523Z,3.60
2024-02-16T01:53:14.036Z,3.57
2024-02-16T01:55:44.430Z,3.37
2024-02-16T01:58:15.497Z,3.90
2024-02-16T02:00:45.077Z,4.23
2024-02-16T02:03:17.066Z,4.67
2024-02-16T02:05:53.818Z,3.87
2024-02-16T02:08:37.395Z,4.30
2024-02-16T02:11:06.989Z,4.43
2024-02-16T02:13:35.171Z,3.77
2024-02-16T02:16:11.931Z,3.47
2024-02-16T02:18:45.162Z,3.93
2024-02-16T02:21:15.752Z,4.00
2024-02-16T02:23:49.253Z,4.10
2024-02-16T02:26:18.844Z,3.70
2024-02-16T02:28:49.982Z,3.70
2024-02-16T02:31:20.010Z,3.47
2024-02-16T02:33:58.220Z,3.73
2024-02-16T02:36:26.822Z,3.80
2024-02-16T02:39:02.322Z,3.97
2024-02-16T02:41:31.351Z,3.20
2024-02-16T02:44:03.897Z,3.53
2024-02-16T02:46:34.397Z,3.40
2024-02-16T02:49:04.819Z,3.00
2024-02-16T02:51:36.334Z,2.93
2024-02-16T02:54:09.674Z,3.30
2024-02-16T02:56:39.388Z,3.23
2024-02-16T02:59:08.107Z,3.60
2024-02-16T03:01:40.419Z,3.60
2024-02-16T03:04:11.535Z,3.80
2024-02-16T03:06:42.442Z,4.10
2024-02-16T03:09:19.880Z,4.30
2024-02-16T03:11:49.030Z,3.30
2024-02-16T03:14:19.118Z,3.60
2024-02-16T03:16:48.092Z,3.77
2024-02-16T03:19:17.579Z,3.30
2024-02-16T03:21:45.810Z,3.87
2024-02-16T03:24:17.950Z,3.50
2024-02-16T03:26:48.216Z,4.47
2024-02-16T03:29:18.181Z,3.83
2024-02-16T03:31:48.808Z,3.90
2024-02-16T03:34:20.008Z,3.80
2024-02-16T03:36:48.882Z,4.13
2024-02-16T03:39:21.684Z,3.80
2024-02-16T03:41:52.241Z,3.87
2024-02-16T03:44:20.402Z,4.17
2024-02-16T03:46:51.336Z,4.20
2024-02-16T03:49:20.695Z,4.60
2024-02-16T03:51:52.008Z,3.50
2024-02-16T03:54:22.573Z,3.43
2024-02-16T03:56:50.530Z,3.63
2024-02-16T03:59:21.946Z,4.23
2024-02-16T04:01:49.856Z,4.17
2024-02-16T04:04:20.782Z,3.70
2024-02-16T04:06:52.697Z,3.83
2024-02-16T04:09:23.993Z,4.07
2024-02-16T04:11:52.953Z,3.93
2024-02-16T04:14:22.648Z,4.30
2024-02-16T04:16:51.428Z,4.27
2024-02-16T04:19:19.580Z,4.77
2024-02-16T04:21:47.622Z,4.03
2024-02-16T04:24:18.585Z,4.13
2024-02-16T04:26:50.295Z,4.60
2024-02-16T04:29:19.914Z,4.00
2024-02-16T04:31:47.884Z,3.80
2024-02-16T04:34:17.643Z,3.60
2024-02-16T04:36:47.099Z,3.70
2024-02-16T04:39:16.069Z,3.60
2024-02-16T04:41:44.440Z,3.80
2024-02-16T04:44:14.467Z,4.07
2024-02-16T04:46:42.717Z,3.97
2024-02-16T04:49:12.295Z,3.87
2024-02-16T04:51:44.320Z,4.50
2024-02-16T04:54:15.488Z,3.60
2024-02-16T04:56:44.954Z,3.87
2024-02-16T04:59:15.649Z,4.07
2024-02-16T05:01:48.859Z,3.67
2024-02-16T05:04:21.051Z,3.70
2024-02-16T05:06:50.746Z,3.67
2024-02-16T05:09:21.694Z,4.17
2024-02-16T05:11:53.291Z,3.83
2024-02-16T05:14:25.132Z,3.60
2024-02-16T05:16:54.278Z,4.07
2024-02-16T05:19:23.370Z,3.87
2024-02-16T05:21:52.906Z,4.97
2024-02-16T05:24:22.640Z,3.90
2024-02-16T05:26:52.985Z,3.93
2024-02-16T05:29:23.566Z,4.47
2024-02-16T05:31:53.840Z,3.83
2024-02-16T05:34:22.606Z,3.90
2024-02-16T05:36:52.242Z,4.10
2024-02-16T05:39:32.852Z,4.20
2024-02-16T05:42:01.486Z,4.40
2024-02-16T05:44:34.411Z,4.43
2024-02-16T05:47:04.603Z,4.00
2024-02-16T05:49:33.597Z,4.37
2024-02-16T05:52:20.220Z,5.37
2024-02-16T05:54:48.976Z,6.10
2024-02-16T05:57:17.738Z,4.80
2024-02-16T05:59:53.078Z,4.60
2024-02-16T06:02:22.552Z,4.03
2024-02-16T06:04:51.173Z,3.83
2024-02-16T06:07:22.218Z,4.40
2024-02-16T06:09:55.387Z,4.23
2024-02-16T06:12:26.699Z,4.40
2024-02-16T06:15:01.310Z,4.43
2024-02-16T06:17:30.507Z,4.80
2024-02-16T06:20:00.948Z,5.70
2024-02-16T06:22:29.368Z,5.63
2024-02-16T06:24:58.653Z,6.40
2024-02-16T06:27:27.459Z,5.57
2024-02-16T06:29:58.616Z,5.57
2024-02-16T06:32:27.350Z,5.60
2024-02-16T06:34:55.846Z,5.13
2024-02-16T06:37:27.293Z,4.90
2024-02-16T06:39:56.341Z,4.80
2024-02-16T06:42:24.702Z,4.80
2024-02-16T06:44:54.335Z,4.40
2024-02-16T06:47:27.276Z,5.40
2024-02-16T06:49:55.885Z,11.20
2024-02-16T06:52:25.533Z,4.83
2024-02-16T06:54:55.150Z,6.50
2024-02-16T06:57:30.868Z,6.33
2024-02-16T07:00:06.413Z,5.90
2024-02-16T07:02:37.176Z,5.70
2024-02-16T07:05:09.425Z,5.83
2024-02-16T07:07:38.576Z,5.70
2024-02-16T07:10:14.407Z,6.00
2024-02-16T07:12:43.849Z,5.73
2024-02-16T07:15:11.793Z,5.87
2024-02-16T07:17:42.969Z,4.80
2024-02-16T07:20:12.106Z,4.67
2024-02-16T07:22:42.165Z,4.67
2024-02-16T07:25:21.207Z,6.13
2024-02-16T07:27:50.082Z,5.80
2024-02-16T07:30:23.529Z,5.50
2024-02-16T07:33:00.385Z,5.67
2024-02-16T07:35:29.123Z,5.70
2024-02-16T07:37:57.065Z,4.73
2024-02-16T07:40:27.036Z,5.60
2024-02-16T07:42:55.481Z,5.13
2024-02-16T07:45:24.034Z,4.43
2024-02-16T07:47:53.254Z,5.57
2024-02-16T07:50:23.696Z,5.53
2024-02-16T07:52:55.521Z,5.30
2024-02-16T07:55:25.808Z,5.20
2024-02-16T07:57:54.326Z,4.83
2024-02-16T08:00:24.234Z,5.17
2024-02-16T08:02:53.744Z,5.30
2024-02-16T08:05:25.531Z,5.20
2024-02-16T08:08:04.746Z,8.37
2024-02-16T08:10:47.419Z,6.43
2024-02-16T08:13:24.415Z,6.40
2024-02-16T08:15:58.643Z,6.50
2024-02-16T08:18:30.062Z,7.67
2024-02-16T08:21:04.483Z,7.10
2024-02-16T08:23:35.752Z,7.13
2024-02-16T08:26:07.012Z,6.47
2024-02-16T08:28:36.745Z,6.70
2024-02-16T08:31:05.804Z,5.30
2024-02-16T08:33:38.467Z,5.30
2024-02-16T08:36:11.297Z,4.60
2024-02-16T08:38:45.168Z,4.30
2024-02-16T08:41:21.537Z,4.97
2024-02-16T08:43:53.204Z,4.20
2024-02-16T08:46:26.652Z,4.40
2024-02-16T08:49:03.265Z,4.77
2024-02-16T08:51:40.728Z,4.57
2024-02-16T08:54:11.021Z,5.13
2024-02-16T08:56:41.120Z,4.80
2024-02-16T08:59:12.207Z,4.70
2024-02-16T09:01:43.747Z,5.43
2024-02-16T09:07:04.670Z,5.03
2024-02-16T09:09:43.186Z,4.70
2024-02-16T09:12:16.753Z,5.03
2024-02-16T09:14:56.052Z,5.30
2024-02-16T09:17:26.173Z,5.07
2024-02-16T09:19:56.440Z,5.40
2024-02-16T09:25:06.722Z,5.27
2024-02-16T09:27:49.626Z,5.27
2024-02-16T09:30:23.775Z,5.80
2024-02-16T09:33:10.103Z,5.30
2024-02-16T09:35:41.330Z,5.33
2024-02-16T09:38:12.195Z,5.30
2024-02-16T09:40:42.442Z,5.80
2024-02-16T09:43:13.932Z,6.10
2024-02-16T09:45:42.326Z,6.27
2024-02-16T09:48:11.947Z,6.03
2024-02-16T09:50:40.131Z,5.13
2024-02-16T09:53:13.591Z,5.83
2024-02-16T09:55:43.243Z,6.17
2024-02-16T09:58:18.557Z,5.97
2024-02-16T10:00:52.625Z,5.47
2024-02-16T10:03:31.845Z,5.60
2024-02-16T10:06:13.512Z,5.60
2024-02-16T10:08:52.232Z,5.27
2024-02-16T10:11:28.978Z,5.30
2024-02-16T10:14:05.256Z,5.40
2024-02-16T10:16:36.398Z,5.70
2024-02-16T10:19:18.632Z,5.20
2024-02-16T10:21:52.718Z,5.70
2024-02-16T10:24:27.694Z,5.27
2024-02-16T10:26:59.120Z,5.63
2024-02-16T10:29:32.970Z,5.17
2024-02-16T10:32:04.752Z,4.63
2024-02-16T10:34:36.657Z,5.17
2024-02-16T10:37:11.023Z,5.60
2024-02-16T10:39:47.977Z,5.10
2024-02-16T10:42:22.032Z,5.57
2024-02-16T10:44:55.932Z,4.67
2024-02-16T10:47:28.326Z,4.47
2024-02-16T10:49:57.587Z,4.60
2024-02-16T10:52:28.540Z,5.07
2024-02-16T10:55:02.087Z,5.03
2024-02-16T10:57:30.777Z,4.67
2024-02-16T11:00:05.066Z,4.50
2024-02-16T11:03:00.793Z,4.70
2024-02-16T11:05:37.050Z,4.60
2024-02-16T11:08:07.047Z,4.73
2024-02-16T11:10:39.894Z,4.60
2024-02-16T11:13:09.099Z,4.77
2024-02-16T11:15:39.769Z,4.73
2024-02-16T11:18:13.817Z,4.97
2024-02-16T11:20:43.081Z,4.57
2024-02-16T11:23:16.374Z,4.87
2024-02-16T11:25:52.592Z,4.57
2024-02-16T11:28:22.023Z,4.10
2024-02-16T11:30:56.302Z,4.53
2024-02-16T11:33:29.888Z,4.20
2024-02-16T11:36:01.100Z,4.47
2024-02-16T11:38:30.284Z,4.23
2024-02-16T11:41:02.362Z,4.47
2024-02-16T11:43:33.615Z,4.60
2024-02-16T11:46:15.236Z,4.40
2024-02-16T11:48:44.597Z,4.50
2024-02-16T11:51:18.470Z,4.60
2024-02-16T11:54:02.582Z,4.17
2024-02-16T11:56:36.336Z,4.70
2024-02-16T11:59:06.195Z,4.20
2024-02-16T12:01:35.702Z,4.60
2024-02-16T12:04:06.119Z,4.17
2024-02-16T12:06:38.704Z,4.40
2024-02-16T12:09:06.928Z,4.40
2024-02-16T12:11:38.646Z,4.43
2024-02-16T12:14:14.121Z,4.30
2024-02-16T12:16:42.545Z,4.30
2024-02-16T12:19:12.240Z,4.27
2024-02-16T12:21:47.144Z,4.60
2024-02-16T12:24:16.066Z,4.57
2024-02-16T12:26:50.570Z,3.90
2024-02-16T12:29:19.098Z,4.63
2024-02-16T12:31:50.572Z,4.47
2024-02-16T12:34:19.785Z,4.63
2024-02-16T12:36:51.343Z,3.67
2024-02-16T12:39:24.042Z,3.70
2024-02-16T12:41:56.375Z,3.27
2024-02-16T12:44:26.501Z,2.60
2024-02-16T12:46:54.284Z,3.00
2024-02-16T12:49:24.052Z,2.77
2024-02-16T12:51:52.281Z,2.70
2024-02-16T12:54:23.002Z,2.80
2024-02-16T12:56:52.968Z,2.30
2024-02-16T12:59:25.496Z,2.27
2024-02-16T13:01:53.911Z,2.30
2024-02-16T13:04:24.019Z,2.23
2024-02-16T13:06:53.631Z,2.20
2024-02-16T13:09:22.008Z,2.30
2024-02-16T13:11:56.006Z,2.60
2024-02-16T13:14:28.932Z,2.37
2024-02-16T13:16:59.904Z,2.70
2024-02-16T13:19:28.310Z,2.50
2024-02-16T13:21:58.674Z,2.23
2024-02-16T13:24:29.721Z,2.30
2024-02-16T13:26:58.949Z,3.30
2024-02-16T13:29:29.334Z,2.37
2024-02-16T13:32:00.998Z,2.57
2024-02-16T13:34:29.027Z,2.70
2024-02-16T13:36:59.255Z,2.40
2024-02-16T13:39:28.538Z,2.37
2024-02-16T13:41:58.658Z,2.40
2024-02-16T13:44:29.518Z,2.30
2024-02-16T13:46:59.421Z,2.20
2024-02-16T13:49:27.276Z,2.30
2024-02-16T13:51:59.753Z,2.60
2024-02-16T13:54:27.924Z,3.03
2024-02-16T13:56:55.909Z,2.53
2024-02-16T13:59:25.288Z,2.60
2024-02-16T14:01:59.509Z,2.53
2024-02-16T14:04:28.369Z,2.40
2024-02-16T14:06:56.847Z,2.37
2024-02-16T14:09:30.261Z,2.77
2024-02-16T14:12:02.202Z,2.70
2024-02-16T14:14:37.087Z,2.53
2024-02-16T14:17:08.134Z,3.03
2024-02-16T14:19:38.754Z,2.17
2024-02-16T14:22:08.056Z,2.20
2024-02-16T14:24:36.261Z,2.40
2024-02-16T14:27:04.841Z,2.27
2024-02-16T14:29:33.199Z,2.60
2024-02-16T14:32:02.039Z,2.20
2024-02-16T14:34:33.878Z,2.47
2024-02-16T14:37:05.465Z,2.30
2024-02-16T14:39:35.309Z,2.30
2024-02-16T14:42:05.740Z,2.53
2024-02-16T14:44:33.781Z,2.40
2024-02-16T14:47:02.254Z,2.70
2024-02-16T14:49:32.401Z,2.40
2024-02-16T14:52:04.623Z,2.40
2024-02-16T14:54:34.108Z,2.43
2024-02-16T14:57:05.018Z,2.47
2024-02-16T14:59:32.888Z,2.40
2024-02-16T15:02:03.645Z,2.13
2024-02-16T15:04:32.304Z,2.50
2024-02-16T15:07:02.607Z,2.70
2024-02-16T15:09:31.908Z,2.40
2024-02-16T15:12:00.158Z,2.43
2024-02-16T15:14:35.409Z,2.03
2024-02-16T15:17:04.328Z,2.33
2024-02-16T15:19:33.864Z,2.43
2024-02-16T15:22:09.275Z,2.53
2024-02-16T15:24:39.345Z,2.67
2024-02-16T15:27:08.226Z,2.20
2024-02-16T15:29:43.595Z,2.13
2024-02-16T15:32:14.013Z,2.40
2024-02-16T15:34:45.339Z,2.27
2024-02-16T15:37:18.885Z,2.30
2024-02-16T15:39:47.117Z,2.23
2024-02-16T15:42:22.035Z,2.87
2024-02-16T15:44:55.075Z,2.40
2024-02-16T15:47:24.117Z,2.50
2024-02-16T15:49:57.339Z,2.50
2024-02-16T15:52:31.116Z,2.60
2024-02-16T15:55:01.077Z,3.40
2024-02-16T15:57:33.400Z,3.47
2024-02-16T16:00:04.442Z,2.60
2024-02-16T16:02:47.024Z,3.07
2024-02-16T16:05:17.047Z,2.70
2024-02-16T16:07:56.363Z,2.80
2024-02-16T16:10:24.587Z,2.87
2024-02-16T16:12:52.431Z,2.70
2024-02-16T16:15:20.838Z,3.30
2024-02-16T16:17:56.044Z,3.13
2024-02-16T16:20:26.790Z,3.30
2024-02-16T16:23:09.997Z,3.10
2024-02-16T16:25:39.131Z,3.83
2024-02-16T16:28:08.660Z,3.33
2024-02-16T16:30:36.877Z,3.40
2024-02-16T16:33:11.896Z,3.30
2024-02-16T16:35:44.391Z,3.77
2024-02-16T16:38:17.031Z,3.43
2024-02-16T16:40:45.167Z,3.70
2024-02-16T16:43:16.312Z,3.70
2024-02-16T16:45:46.912Z,4.00
2024-02-16T16:48:15.233Z,3.70
2024-02-16T16:50:46.226Z,3.90
2024-02-16T16:53:17.706Z,3.60
2024-02-16T16:55:49.623Z,4.00
2024-02-16T16:58:25.536Z,3.80
2024-02-16T17:00:56.527Z,3.97
2024-02-16T17:03:26.907Z,4.37
2024-02-16T17:05:57.580Z,4.27
2024-02-16T17:08:30.997Z,3.47
2024-02-16T17:11:02.781Z,4.03
2024-02-16T17:13:31.264Z,4.50
2024-02-16T17:16:03.480Z,4.50
2024-02-16T17:18:35.771Z,4.43
2024-02-16T17:21:05.959Z,4.30
2024-02-16T17:23:36.524Z,4.47
2024-02-16T17:26:13.717Z,4.30
2024-02-16T17:28:44.098Z,4.20
2024-02-16T17:31:13.148Z,4.23
2024-02-16T17:33:45.269Z,4.10
2024-02-16T17:36:14.184Z,4.10
2024-02-16T17:38:47.799Z,4.00
2024-02-16T17:41:36.566Z,4.33
2024-02-16T17:44:06.248Z,4.20
2024-02-16T17:46:36.044Z,4.03
2024-02-16T17:49:06.316Z,4.03
2024-02-16T17:51:42.564Z,4.00
2024-02-16T17:54:12.961Z,3.47
2024-02-16T17:56:43.659Z,4.00
2024-02-16T17:59:16.491Z,4.77
2024-02-16T18:01:47.116Z,4.67
2024-02-16T18:04:17.925Z,4.93
2024-02-16T18:06:48.855Z,5.03
2024-02-16T18:09:19.162Z,5.47
2024-02-16T18:11:49.371Z,4.80
2024-02-16T18:14:17.697Z,5.40
2024-02-16T18:16:46.303Z,5.53
2024-02-16T18:19:14.660Z,4.83
2024-02-16T18:21:45.821Z,5.33
2024-02-16T18:24:16.821Z,6.00
2024-02-16T18:26:46.516Z,5.23
2024-02-16T18:29:14.821Z,6.23
2024-02-16T18:31:44.488Z,5.77
2024-02-16T18:34:13.770Z,5.90
2024-02-16T18:36:45.554Z,6.00
2024-02-16T18:39:13.884Z,5.83
2024-02-16T18:41:44.378Z,6.20
2024-02-16T18:44:15.506Z,6.47
2024-02-16T18:46:46.141Z,6.60
2024-02-16T18:49:18.393Z,6.00
2024-02-16T18:51:50.694Z,6.20
2024-02-16T18:54:18.775Z,6.53
2024-02-16T18:56:47.714Z,6.00
2024-02-16T18:59:17.797Z,6.87
2024-02-16T19:01:45.847Z,6.57
2024-02-16T19:04:14.224Z,7.53
2024-02-16T19:06:44.567Z,7.27
2024-02-16T19:09:13.149Z,6.80
2024-02-16T19:11:41.951Z,8.03
2024-02-16T19:14:15.360Z,7.60
2024-02-16T19:16:46.379Z,7.73
2024-02-16T19:19:18.826Z,7.80
2024-02-16T19:21:47.243Z,7.67
2024-02-16T19:24:25.482Z,8.40
2024-02-16T19:27:01.685Z,7.87
2024-02-16T19:29:29.588Z,7.30
2024-02-16T19:32:01.225Z,8.00
2024-02-16T19:34:29.537Z,8.37
2024-02-16T19:36:58.986Z,8.10
2024-02-16T19:39:29.270Z,8.53
2024-02-16T19:42:00.425Z,8.27
2024-02-16T19:44:30.374Z,8.53
2024-02-16T19:47:00.608Z,8.83
2024-02-16T19:49:32.776Z,8.53
2024-02-16T19:52:02.373Z,9.10
2024-02-16T19:54:31.675Z,9.40
2024-02-16T19:57:01.498Z,8.87
2024-02-16T19:59:30.422Z,9.27
2024-02-16T20:01:59.179Z,10.57
2024-02-16T20:04:31.208Z,9.83
2024-02-16T20:06:59.391Z,9.60
2024-02-16T20:09:31.955Z,10.10
2024-02-16T20:12:00.993Z,10.70
2024-02-16T20:14:28.986Z,10.63
2024-02-16T20:16:57.182Z,10.87
2024-02-16T20:19:29.327Z,10.80
2024-02-16T20:22:00.055Z,11.83
2024-02-16T20:24:29.685Z,11.07
2024-02-16T20:27:01.360Z,10.90
2024-02-16T20:29:33.322Z,10.97
2024-02-16T20:32:05.381Z,11.30
2024-02-16T20:34:35.365Z,12.20
2024-02-16T20:37:05.561Z,11.07
2024-02-16T20:39:40.895Z,11.03
2024-02-16T20:42:12.722Z,12.00
2024-02-16T20:44:43.461Z,11.37
2024-02-16T20:47:16.098Z,11.93
2024-02-16T20:49:45.071Z,12.10
2024-02-16T20:52:15.635Z,11.97
2024-02-16T20:54:43.785Z,12.40
2024-02-16T20:57:12.272Z,12.53
2024-02-16T20:59:42.909Z,13.60
2024-02-16T21:02:15.976Z,13.10
2024-02-16T21:04:46.476Z,12.47
2024-02-16T21:07:17.883Z,12.27
2024-02-16T21:09:49.565Z,13.17
2024-02-16T21:12:18.684Z,14.23
2024-02-16T21:14:48.822Z,13.27
2024-02-16T21:17:18.534Z,13.10
2024-02-16T21:19:50.537Z,13.23
2024-02-16T21:22:19.716Z,14.33
2024-02-16T21:24:48.964Z,13.60
2024-02-16T21:27:17.904Z,13.10
2024-02-16T21:29:54.957Z,12.60
2024-02-16T21:32:29.277Z,12.10
2024-02-16T21:35:01.462Z,10.80
2024-02-16T21:37:36.730Z,12.30
2024-02-16T21:40:07.634Z,12.47
2024-02-16T21:42:37.812Z,12.00
2024-02-16T21:45:11.063Z,10.77
2024-02-16T21:47:50.035Z,11.53
2024-02-16T21:50:24.874Z,11.53
2024-02-16T21:52:55.474Z,10.53
2024-02-16T21:55:23.980Z,10.50
2024-02-16T21:57:55.031Z,9.80
2024-02-16T22:00:24.865Z,9.43
2024-02-16T22:02:53.454Z,10.80
2024-02-16T22:05:25.486Z,7.63
2024-02-16T22:07:56.931Z,9.07
2024-02-16T22:10:25.114Z,10.03
2024-02-16T22:12:54.863Z,9.50
2024-02-16T22:15:23.892Z,9.73
2024-02-16T22:17:57.781Z,9.23
2024-02-16T22:20:25.875Z,9.00
2024-02-16T22:22:56.101Z,9.90
2024-02-16T22:25:28.076Z,8.67
2024-02-16T22:27:56.409Z,8.37
2024-02-16T22:30:24.821Z,8.27
2024-02-16T22:32:52.985Z,7.80
2024-02-16T22:35:21.820Z,7.07
2024-02-16T22:37:50.482Z,3.87
2024-02-16T22:40:21.624Z,3.77
2024-02-16T22:42:52.572Z,3.80
2024-02-16T22:45:21.112Z,3.80
2024-02-16T22:47:49.330Z,3.40
2024-02-16T22:50:18.321Z,3.77
2024-02-16T22:52:46.391Z,3.67
2024-02-16T22:55:14.887Z,4.10
2024-02-16T22:57:44.288Z,5.20
2024-02-16T23:00:24.087Z,5.00
2024-02-16T23:02:53.176Z,5.60
2024-02-16T23:05:24.910Z,6.20
2024-02-16T23:07:54.635Z,6.70
2024-02-16T23:10:27.379Z,7.13
2024-02-16T23:12:55.743Z,7.10
2024-02-16T23:15:30.480Z,7.53
2024-02-16T23:18:00.160Z,8.40
2024-02-16T23:20:28.273Z,8.10
2024-02-16T23:23:01.427Z,8.60
2024-02-16T23:25:33.155Z,8.30
2024-02-16T23:28:03.914Z,8.47
2024-02-16T23:30:33.832Z,8.17
2024-02-16T23:33:08.861Z,8.97
2024-02-16T23:35:39.608Z,8.23
2024-02-16T23:38:08.745Z,7.60
2024-02-16T23:40:39.981Z,8.00
2024-02-16T23:43:14.637Z,8.20
2024-02-16T23:45:44.827Z,8.23
2024-02-16T23:48:14.730Z,7.50
2024-02-16T23:50:42.651Z,7.20
2024-02-16T23:53:12.514Z,7.50
2024-02-16T23:55:42.111Z,7.57
2024-02-16T23:58:11.678Z,7.53
